Alsey, Illinois
Current Conditions -  °F | °C
As of 12:15 AM on Sunday 26 Oct 2014 (Local Time) from KIJX Reporting Station
Clear Clear  
Wind Chill: 13°   Ceiling: Unl
Heat Index: 13°   Visibility: 10mi
Dew Point:   Wind: 6mph
Humidity: 63%   Direction: 350°N
Pressure: 30.04"   Gusts: NA
Location:  39.56°N, 90.43°W
Report Text: KIJX 260515Z AUTO 35005KT 10SM CLR 13/06 A3004 RMK AO2 T01250057
Loading
Personal Weather Stations






























Interactive Weather Map
Tropical Storm Tracking
New forecast layout! Learn more

10-Day Weather Forecast

Advertisements
Track Severe Weather on mobile